createdAt,value
2018-06-30T00:00:55.122Z,5.03
2018-06-30T00:03:27.864Z,5.27
2018-06-30T00:05:56.563Z,5.10
2018-06-30T00:08:25.339Z,5.17
2018-06-30T00:10:58.175Z,6.47
2018-06-30T00:13:27.165Z,6.37
2018-06-30T00:16:00.447Z,5.67
2018-06-30T00:18:28.946Z,5.80
2018-06-30T00:21:02.333Z,6.40
2018-06-30T00:23:31.097Z,5.80
2018-06-30T00:26:00.644Z,5.53
2018-06-30T00:28:37.023Z,6.53
2018-06-30T00:31:11.163Z,5.93
2018-06-30T00:33:39.727Z,5.87
2018-06-30T00:36:12.727Z,5.97
2018-06-30T00:38:41.177Z,6.10
2018-06-30T00:41:13.890Z,5.63
2018-06-30T00:43:42.352Z,6.37
2018-06-30T00:48:52.332Z,7.07
2018-06-30T00:51:20.479Z,6.17
2018-06-30T00:53:49.483Z,6.37
2018-06-30T00:56:22.823Z,6.10
2018-06-30T00:58:52.162Z,6.60
2018-06-30T01:01:24.834Z,6.47
2018-06-30T01:03:53.564Z,5.27
2018-06-30T01:06:28.327Z,6.03
2018-06-30T01:08:57.095Z,5.77
2018-06-30T01:11:29.663Z,6.27
2018-06-30T01:13:58.171Z,6.07
2018-06-30T01:16:39.206Z,6.63
2018-06-30T01:19:07.717Z,6.70
2018-06-30T01:21:36.507Z,6.00
2018-06-30T01:24:05.168Z,6.30
2018-06-30T01:26:37.329Z,6.90
2018-06-30T01:29:06.238Z,6.30
2018-06-30T01:31:39.948Z,6.37
2018-06-30T01:34:08.651Z,6.80
2018-06-30T01:36:42.095Z,6.83
2018-06-30T01:39:11.296Z,6.73
2018-06-30T01:41:52.568Z,7.43
2018-06-30T01:44:20.988Z,6.10
2018-06-30T01:46:49.202Z,6.47
2018-06-30T01:49:17.681Z,7.33
2018-06-30T01:51:49.041Z,6.80
2018-06-30T01:54:17.219Z,6.90
2018-06-30T01:56:52.554Z,7.87
2018-06-30T01:59:20.967Z,7.43
2018-06-30T02:01:53.901Z,7.50
2018-06-30T02:04:22.608Z,7.63
2018-06-30T02:07:03.561Z,6.77
2018-06-30T02:09:32.101Z,6.80
2018-06-30T02:12:00.558Z,7.37
2018-06-30T02:14:28.778Z,6.60
2018-06-30T02:17:01.444Z,7.97
2018-06-30T02:19:30.230Z,7.27
2018-06-30T02:22:03.124Z,8.03
2018-06-30T02:24:31.649Z,7.83
2018-06-30T02:27:00.120Z,8.03
2018-06-30T02:29:28.617Z,7.20
2018-06-30T02:31:57.358Z,8.00
2018-06-30T02:34:26.186Z,8.40
2018-06-30T02:36:54.342Z,7.20
2018-06-30T02:39:23.107Z,7.97
2018-06-30T02:41:52.043Z,8.10
2018-06-30T02:44:20.210Z,8.60
2018-06-30T02:46:49.156Z,8.53
2018-06-30T02:49:18.976Z,9.47
2018-06-30T02:51:47.479Z,8.90
2018-06-30T02:54:20.135Z,10.47
2018-06-30T02:56:48.334Z,9.47
2018-06-30T02:59:20.268Z,9.27
2018-06-30T03:01:49.359Z,9.63
2018-06-30T03:04:17.894Z,9.73
2018-06-30T03:06:46.580Z,9.10
2018-06-30T03:09:15.311Z,9.90
2018-06-30T03:11:43.857Z,9.77
2018-06-30T03:14:12.168Z,10.23
2018-06-30T03:16:40.614Z,9.30
2018-06-30T03:19:09.164Z,9.93
2018-06-30T03:21:37.636Z,9.77
2018-06-30T03:24:06.479Z,9.60
2018-06-30T03:26:36.820Z,10.60
2018-06-30T03:29:05.302Z,9.93
2018-06-30T03:31:38.372Z,9.70
2018-06-30T03:34:06.733Z,10.33
2018-06-30T03:36:40.161Z,10.20
2018-06-30T03:39:10.114Z,10.17
2018-06-30T03:41:43.144Z,10.33
2018-06-30T03:44:12.096Z,10.33
2018-06-30T03:46:45.147Z,9.90
2018-06-30T03:49:13.780Z,10.90
2018-06-30T03:51:47.321Z,10.27
2018-06-30T03:54:16.289Z,10.53
2018-06-30T03:56:44.824Z,10.83
2018-06-30T03:59:12.978Z,10.40
2018-06-30T04:01:41.932Z,10.33
2018-06-30T04:04:10.088Z,10.77
2018-06-30T04:06:38.755Z,11.80
2018-06-30T04:09:08.346Z,10.60
2018-06-30T04:11:36.694Z,11.17
2018-06-30T04:14:05.127Z,10.20
2018-06-30T04:16:33.586Z,10.57
2018-06-30T04:19:08.272Z,11.47
2018-06-30T04:21:36.787Z,10.20
2018-06-30T04:24:05.984Z,10.53
2018-06-30T04:26:34.931Z,11.07
2018-06-30T04:31:37.258Z,9.63
2018-06-30T04:34:10.200Z,9.77
2018-06-30T04:36:38.723Z,10.33
2018-06-30T04:39:13.555Z,10.37
2018-06-30T04:41:42.187Z,10.63
2018-06-30T04:44:14.766Z,10.90
2018-06-30T04:46:43.576Z,11.33
2018-06-30T04:49:12.594Z,11.13
2018-06-30T04:51:46.048Z,10.80
2018-06-30T04:54:14.248Z,10.37
2018-06-30T04:56:42.739Z,10.70
2018-06-30T04:59:11.194Z,9.77
2018-06-30T05:01:39.350Z,10.43
2018-06-30T05:04:07.952Z,10.40
2018-06-30T05:06:36.728Z,10.70
2018-06-30T05:09:06.227Z,9.77
2018-06-30T05:11:34.441Z,10.80
2018-06-30T05:14:03.303Z,13.17
2018-06-30T05:16:35.979Z,12.00
2018-06-30T05:19:04.307Z,11.50
2018-06-30T05:21:45.666Z,10.70
2018-06-30T05:24:14.183Z,11.67
2018-06-30T05:26:43.015Z,11.50
2018-06-30T05:29:12.367Z,10.83
2018-06-30T05:31:41.583Z,11.50
2018-06-30T05:34:09.774Z,11.33
2018-06-30T05:36:43.656Z,11.90
2018-06-30T05:39:11.802Z,11.50
2018-06-30T05:41:44.675Z,11.77
2018-06-30T05:44:13.838Z,10.87
2018-06-30T05:46:47.028Z,10.60
2018-06-30T05:49:15.792Z,10.33
2018-06-30T05:54:18.261Z,10.60
2018-06-30T05:59:20.224Z,10.95
2018-06-30T06:01:48.704Z,10.80
2018-06-30T06:04:17.192Z,11.40
2018-06-30T06:06:45.679Z,10.60
2018-06-30T06:09:14.427Z,11.45
2018-06-30T06:11:42.746Z,10.78
2018-06-30T06:14:12.099Z,10.45
2018-06-30T06:16:40.568Z,11.38
2018-06-30T06:19:09.373Z,11.95
2018-06-30T06:21:38.134Z,10.38
2018-06-30T06:24:11.815Z,10.95
2018-06-30T06:26:40.133Z,11.30
2018-06-30T06:29:12.251Z,11.20
2018-06-30T06:31:43.015Z,9.80
2018-06-30T06:34:15.219Z,10.75
2018-06-30T06:36:44.116Z,10.78
2018-06-30T06:39:25.408Z,10.58
2018-06-30T06:41:53.944Z,11.12
2018-06-30T06:44:22.423Z,10.55
2018-06-30T06:46:51.191Z,10.93
2018-06-30T06:49:23.257Z,10.10
2018-06-30T06:51:51.763Z,10.35
2018-06-30T06:54:24.059Z,9.95
2018-06-30T06:56:52.684Z,12.75
2018-06-30T06:59:26.107Z,11.30
2018-06-30T07:01:56.288Z,10.23
2018-06-30T07:04:37.863Z,11.30
2018-06-30T07:07:07.882Z,10.60
2018-06-30T07:09:36.360Z,11.18
2018-06-30T07:12:04.860Z,11.28
2018-06-30T07:14:34.924Z,11.20
2018-06-30T07:17:03.496Z,11.53
2018-06-30T07:19:44.454Z,9.40
2018-06-30T07:22:13.678Z,9.98
2018-06-30T07:24:42.279Z,11.75
2018-06-30T07:27:11.916Z,11.78
2018-06-30T07:29:42.500Z,12.30
2018-06-30T07:32:11.015Z,11.08
2018-06-30T07:34:44.651Z,11.45
2018-06-30T07:37:13.505Z,10.32
2018-06-30T07:39:51.652Z,10.80
2018-06-30T07:42:20.035Z,10.25
2018-06-30T07:44:50.322Z,10.15
2018-06-30T07:47:19.169Z,9.43
2018-06-30T07:50:04.298Z,9.15
2018-06-30T07:52:32.827Z,9.65
2018-06-30T07:55:01.429Z,9.98
2018-06-30T07:57:30.131Z,9.65
2018-06-30T08:00:00.396Z,9.95
2018-06-30T08:02:28.993Z,7.83
2018-06-30T08:05:01.527Z,8.10
2018-06-30T08:07:31.271Z,8.78
2018-06-30T08:10:07.170Z,9.73
2018-06-30T08:12:36.166Z,9.73
2018-06-30T08:15:06.094Z,9.50
2018-06-30T08:17:34.666Z,8.23
2018-06-30T08:20:09.168Z,8.50
2018-06-30T08:22:37.551Z,9.40
2018-06-30T08:25:11.792Z,9.25
2018-06-30T08:27:41.111Z,7.87
2018-06-30T08:30:14.242Z,8.28
2018-06-30T08:32:43.170Z,8.58
2018-06-30T08:35:19.617Z,7.22
2018-06-30T08:37:47.898Z,7.70
2018-06-30T08:40:20.127Z,7.58
2018-06-30T08:42:48.385Z,7.10
2018-06-30T08:45:30.535Z,8.20
2018-06-30T08:47:58.767Z,8.05
2018-06-30T08:50:27.331Z,8.38
2018-06-30T08:52:56.974Z,8.15
2018-06-30T08:55:27.669Z,9.38
2018-06-30T08:57:58.193Z,8.60
2018-06-30T09:00:28.188Z,8.85
2018-06-30T09:02:57.086Z,8.20
2018-06-30T09:05:31.783Z,8.20
2018-06-30T09:08:00.123Z,8.98
2018-06-30T09:10:42.138Z,9.20
2018-06-30T09:13:13.382Z,8.40
2018-06-30T09:15:41.809Z,7.35
2018-06-30T09:18:10.671Z,8.40
2018-06-30T09:20:39.463Z,8.88
2018-06-30T09:23:12.417Z,8.23
2018-06-30T09:25:43.218Z,9.15
2018-06-30T09:28:11.655Z,9.18
2018-06-30T09:30:43.598Z,10.00
2018-06-30T09:33:12.505Z,8.45
2018-06-30T09:35:50.187Z,8.10
2018-06-30T09:38:19.321Z,9.83
2018-06-30T09:40:50.627Z,9.58
2018-06-30T09:43:20.030Z,8.33
2018-06-30T09:45:52.248Z,8.20
2018-06-30T09:48:21.327Z,9.03
2018-06-30T09:50:55.062Z,8.03
2018-06-30T09:53:23.584Z,8.30
2018-06-30T09:55:55.034Z,8.68
2018-06-30T09:58:24.096Z,8.40
2018-06-30T10:00:57.821Z,8.13
2018-06-30T10:03:26.907Z,7.80
2018-06-30T10:06:00.916Z,6.80
2018-06-30T10:08:29.415Z,7.20
2018-06-30T10:11:03.224Z,7.12
2018-06-30T10:13:31.589Z,6.83
2018-06-30T10:16:05.044Z,7.28
2018-06-30T10:18:33.757Z,6.62
2018-06-30T10:21:02.424Z,6.50
2018-06-30T10:23:32.847Z,6.80
2018-06-30T10:26:01.393Z,6.47
2018-06-30T10:28:30.118Z,7.17
2018-06-30T10:30:58.620Z,7.22
2018-06-30T10:33:27.374Z,6.75
2018-06-30T10:35:56.800Z,6.20
2018-06-30T10:38:29.311Z,5.87
2018-06-30T10:41:00.286Z,5.95
2018-06-30T10:43:28.798Z,6.75
2018-06-30T10:45:57.100Z,5.87
2018-06-30T10:48:25.520Z,5.42
2018-06-30T10:51:00.676Z,6.95
2018-06-30T10:53:29.423Z,6.40
2018-06-30T10:55:57.624Z,7.78
2018-06-30T10:58:32.603Z,8.70
2018-06-30T11:01:01.489Z,7.08
2018-06-30T11:03:29.725Z,7.92
2018-06-30T11:05:59.305Z,7.53
2018-06-30T11:08:41.156Z,7.10
2018-06-30T11:11:09.399Z,8.45
2018-06-30T11:16:11.664Z,5.90
2018-06-30T11:18:41.324Z,5.80
2018-06-30T11:21:09.928Z,6.03
2018-06-30T11:23:41.151Z,5.40
2018-06-30T11:26:09.712Z,5.00
2018-06-30T11:28:43.421Z,5.78
2018-06-30T11:31:11.896Z,5.75
2018-06-30T11:33:54.570Z,6.40
2018-06-30T11:36:23.652Z,8.78
2018-06-30T11:38:52.223Z,5.67
2018-06-30T11:41:20.446Z,5.58
2018-06-30T11:43:51.204Z,5.35
2018-06-30T11:46:19.519Z,5.00
2018-06-30T11:48:52.131Z,5.75
2018-06-30T11:51:22.665Z,7.85
2018-06-30T11:54:05.447Z,5.22
2018-06-30T11:56:34.974Z,5.60
2018-06-30T11:59:04.103Z,5.45
2018-06-30T12:01:33.118Z,4.83
2018-06-30T12:04:02.508Z,5.12
2018-06-30T12:06:33.149Z,5.85
2018-06-30T12:09:04.462Z,5.25
2018-06-30T12:11:33.215Z,5.28
2018-06-30T12:14:09.836Z,4.85
2018-06-30T12:16:38.485Z,5.42
2018-06-30T12:19:11.951Z,5.42
2018-06-30T12:21:40.350Z,4.90
2018-06-30T12:24:13.848Z,4.80
2018-06-30T12:26:44.799Z,5.03
2018-06-30T12:29:15.574Z,4.92
2018-06-30T12:31:44.541Z,5.45
2018-06-30T12:34:19.258Z,5.35
2018-06-30T12:36:47.703Z,5.75
2018-06-30T12:39:21.311Z,5.35
2018-06-30T12:41:50.217Z,6.03
2018-06-30T12:44:23.315Z,5.95
2018-06-30T12:46:53.640Z,5.72
2018-06-30T12:49:27.936Z,5.45
2018-06-30T12:51:56.504Z,4.87
2018-06-30T12:54:30.321Z,7.62
2018-06-30T12:56:59.172Z,5.17
2018-06-30T12:59:31.097Z,5.55
2018-06-30T13:01:59.931Z,5.70
2018-06-30T13:04:35.777Z,8.55
2018-06-30T13:07:08.783Z,5.03
2018-06-30T13:09:37.459Z,4.83
2018-06-30T13:12:05.978Z,4.87
2018-06-30T13:14:50.229Z,5.33
2018-06-30T13:17:19.331Z,4.80
2018-06-30T13:19:48.165Z,5.25
2018-06-30T13:22:16.334Z,5.33
2018-06-30T13:24:45.458Z,4.92
2018-06-30T13:27:14.367Z,4.87
2018-06-30T13:29:56.399Z,5.60
2018-06-30T13:32:26.111Z,6.50
2018-06-30T13:34:54.511Z,5.47
2018-06-30T13:37:23.171Z,4.60
2018-06-30T13:39:52.127Z,8.35
2018-06-30T13:42:21.468Z,5.97
2018-06-30T13:45:02.383Z,6.45
2018-06-30T13:47:30.830Z,4.92
2018-06-30T13:49:59.398Z,4.70
2018-06-30T13:52:28.276Z,4.85
2018-06-30T13:55:10.359Z,4.60
2018-06-30T13:57:39.194Z,4.42
2018-06-30T14:00:07.943Z,5.62
2018-06-30T14:02:37.159Z,4.50
2018-06-30T14:05:06.741Z,4.40
2018-06-30T14:07:36.398Z,4.50
2018-06-30T14:10:09.536Z,4.50
2018-06-30T14:12:38.079Z,4.60
2018-06-30T14:15:12.113Z,4.17
2018-06-30T14:17:41.340Z,4.10
2018-06-30T14:20:22.291Z,4.17
2018-06-30T14:22:52.283Z,4.53
2018-06-30T14:25:22.284Z,4.53
2018-06-30T14:27:51.677Z,4.42
2018-06-30T14:30:20.187Z,4.25
2018-06-30T14:32:50.030Z,4.55
2018-06-30T14:35:21.167Z,15.60
2018-06-30T14:37:49.702Z,4.85
2018-06-30T14:40:31.655Z,5.15
2018-06-30T14:43:00.559Z,5.33
2018-06-30T14:45:28.746Z,4.25
2018-06-30T14:47:58.237Z,4.47
2018-06-30T14:50:28.537Z,4.67
2018-06-30T14:53:02.646Z,4.65
2018-06-30T14:55:41.537Z,4.37
2018-06-30T14:58:15.427Z,5.05
2018-06-30T15:00:45.263Z,4.53
2018-06-30T15:03:15.579Z,6.25
2018-06-30T15:05:45.901Z,5.40
2018-06-30T15:08:14.521Z,4.22
2018-06-30T15:10:43.488Z,5.00
2018-06-30T15:13:12.561Z,4.90
2018-06-30T15:15:42.179Z,4.83
2018-06-30T15:18:12.283Z,4.40
2018-06-30T15:20:45.151Z,4.45
2018-06-30T15:23:15.645Z,5.03
2018-06-30T15:25:46.109Z,5.90
2018-06-30T15:28:16.990Z,4.47
2018-06-30T15:30:49.385Z,5.08
2018-06-30T15:33:19.441Z,5.15
2018-06-30T15:35:53.766Z,4.95
2018-06-30T15:38:21.867Z,4.67
2018-06-30T15:40:53.886Z,5.35
2018-06-30T15:43:22.418Z,4.47
2018-06-30T15:46:08.980Z,4.47
2018-06-30T15:48:37.943Z,4.60
2018-06-30T15:51:06.482Z,4.67
2018-06-30T15:53:34.815Z,4.35
2018-06-30T15:56:03.590Z,4.50
2018-06-30T15:58:35.064Z,4.75
2018-06-30T16:01:04.914Z,9.98
2018-06-30T16:03:34.700Z,9.60
2018-06-30T16:06:07.920Z,5.55
2018-06-30T16:08:38.092Z,5.40
2018-06-30T16:11:11.032Z,4.70
2018-06-30T16:13:39.233Z,4.80
2018-06-30T16:16:13.068Z,4.90
2018-06-30T16:18:41.835Z,4.90
2018-06-30T16:21:23.642Z,5.00
2018-06-30T16:23:53.083Z,4.25
2018-06-30T16:26:23.348Z,4.30
2018-06-30T16:28:52.154Z,4.40
2018-06-30T16:31:20.599Z,4.70
2018-06-30T16:33:48.794Z,4.30
2018-06-30T16:36:22.723Z,4.45
2018-06-30T16:38:53.626Z,4.45
2018-06-30T16:41:26.370Z,4.20
2018-06-30T16:43:54.607Z,3.90
2018-06-30T16:46:36.228Z,4.00
2018-06-30T16:49:04.922Z,4.15
2018-06-30T16:51:35.120Z,4.22
2018-06-30T16:54:03.672Z,3.50
2018-06-30T16:56:32.405Z,4.25
2018-06-30T16:59:01.096Z,3.67
2018-06-30T17:01:35.679Z,5.10
2018-06-30T17:04:06.748Z,4.90
2018-06-30T17:06:35.633Z,3.75
2018-06-30T17:09:06.596Z,3.15
2018-06-30T17:11:48.448Z,4.42
2018-06-30T17:14:16.642Z,3.83
2018-06-30T17:16:45.089Z,3.05
2018-06-30T17:19:17.812Z,3.15
2018-06-30T17:21:46.308Z,3.40
2018-06-30T17:24:14.510Z,3.30
2018-06-30T17:26:55.676Z,3.50
2018-06-30T17:29:24.239Z,4.42
2018-06-30T17:31:52.484Z,4.58
2018-06-30T17:34:21.320Z,3.67
2018-06-30T17:36:54.077Z,3.85
2018-06-30T17:39:23.612Z,4.05
2018-06-30T17:41:55.127Z,3.17
2018-06-30T17:44:24.941Z,3.05
2018-06-30T17:47:06.507Z,2.55
2018-06-30T17:49:35.536Z,2.35
2018-06-30T17:52:04.344Z,2.72
2018-06-30T17:54:32.680Z,2.52
2018-06-30T17:57:02.857Z,2.30
2018-06-30T17:59:32.163Z,2.55
2018-06-30T18:02:06.454Z,2.27
2018-06-30T18:04:35.714Z,1.87
2018-06-30T18:07:13.164Z,2.37
2018-06-30T18:09:44.065Z,2.27
2018-06-30T18:12:16.505Z,2.00
2018-06-30T18:14:45.656Z,2.35
2018-06-30T18:17:14.930Z,2.83
2018-06-30T18:19:43.162Z,2.50
2018-06-30T18:22:16.706Z,4.20
2018-06-30T18:24:48.960Z,8.38
2018-06-30T18:27:19.049Z,3.92
2018-06-30T18:29:48.185Z,4.80
2018-06-30T18:32:29.163Z,2.60
2018-06-30T18:34:58.356Z,3.08
2018-06-30T18:37:27.743Z,2.90
2018-06-30T18:39:56.549Z,3.30
2018-06-30T18:42:26.720Z,3.02
2018-06-30T18:44:55.228Z,3.50
2018-06-30T18:47:37.672Z,4.55
2018-06-30T18:50:06.747Z,3.37
2018-06-30T18:52:35.296Z,3.10
2018-06-30T18:55:03.828Z,2.77
2018-06-30T18:57:32.388Z,4.40
2018-06-30T19:00:01.814Z,13.95
2018-06-30T19:02:37.229Z,3.85
2018-06-30T19:05:07.605Z,5.83
2018-06-30T19:07:39.292Z,4.03
2018-06-30T19:10:08.144Z,33.28
2018-06-30T19:12:40.776Z,24.95
2018-06-30T19:15:09.157Z,17.05
2018-06-30T19:17:42.173Z,8.50
2018-06-30T19:20:10.326Z,7.58
2018-06-30T19:22:44.280Z,9.35
2018-06-30T19:25:19.308Z,6.78
2018-06-30T19:27:53.574Z,4.03
2018-06-30T19:30:22.619Z,3.00
2018-06-30T19:32:52.161Z,2.67
2018-06-30T19:35:20.416Z,2.65
2018-06-30T19:38:01.674Z,2.25
2018-06-30T19:40:30.722Z,2.02
2018-06-30T19:42:59.663Z,2.08
2018-06-30T19:45:30.485Z,2.40
2018-06-30T19:47:59.608Z,2.60
2018-06-30T19:50:29.268Z,2.08
2018-06-30T19:53:05.106Z,2.50
2018-06-30T19:55:34.193Z,2.90
2018-06-30T19:58:05.423Z,2.33
2018-06-30T20:00:36.380Z,2.57
2018-06-30T20:03:08.476Z,2.73
2018-06-30T20:05:37.174Z,3.80
2018-06-30T20:08:10.113Z,4.30
2018-06-30T20:10:38.379Z,2.30
2018-06-30T20:15:41.155Z,1.50
2018-06-30T20:18:14.760Z,1.50
2018-06-30T20:20:43.759Z,1.57
2018-06-30T20:23:18.646Z,1.63
2018-06-30T20:25:47.143Z,1.63
2018-06-30T20:28:19.917Z,1.40
2018-06-30T20:30:52.244Z,1.70
2018-06-30T20:33:25.086Z,1.30
2018-06-30T20:35:54.305Z,1.60
2018-06-30T20:38:27.268Z,1.30
2018-06-30T20:40:57.892Z,1.50
2018-06-30T20:43:28.039Z,2.00
2018-06-30T20:45:57.156Z,2.03
2018-06-30T20:48:42.354Z,11.13
2018-06-30T20:51:12.839Z,2.40
2018-06-30T20:53:42.236Z,3.10
2018-06-30T20:56:10.573Z,2.00
2018-06-30T20:58:42.095Z,6.03
2018-06-30T21:01:10.401Z,2.93
2018-06-30T21:03:39.163Z,1.73
2018-06-30T21:06:08.360Z,2.80
2018-06-30T21:08:43.677Z,1.60
2018-06-30T21:11:13.104Z,1.20
2018-06-30T21:13:42.400Z,1.33
2018-06-30T21:16:13.259Z,1.10
2018-06-30T21:18:46.595Z,1.70
2018-06-30T21:21:17.660Z,2.33
2018-06-30T21:23:48.124Z,2.27
2018-06-30T21:26:16.683Z,1.00
2018-06-30T21:28:51.101Z,1.10
2018-06-30T21:31:21.422Z,20.30
2018-06-30T21:33:53.558Z,3.10
2018-06-30T21:36:23.176Z,6.17
2018-06-30T21:38:56.452Z,4.73
2018-06-30T21:41:26.455Z,2.10
2018-06-30T21:44:01.588Z,4.03
2018-06-30T21:46:30.175Z,1.90
2018-06-30T21:49:00.821Z,2.30
2018-06-30T21:51:29.400Z,1.57
2018-06-30T21:54:02.324Z,1.00
2018-06-30T21:56:31.836Z,1.27
2018-06-30T21:59:06.105Z,0.90
2018-06-30T22:01:35.415Z,1.10
2018-06-30T22:04:08.342Z,1.40
2018-06-30T22:06:39.185Z,1.27
2018-06-30T22:09:12.552Z,2.00
2018-06-30T22:11:41.162Z,1.97
2018-06-30T22:14:14.920Z,1.57
2018-06-30T22:16:44.560Z,1.43
2018-06-30T22:19:18.848Z,2.90
2018-06-30T22:21:48.676Z,1.30
2018-06-30T22:24:23.987Z,1.10
2018-06-30T22:26:54.686Z,1.10
2018-06-30T22:29:24.153Z,1.80
2018-06-30T22:31:55.068Z,1.90
2018-06-30T22:34:23.559Z,2.50
2018-06-30T22:36:52.624Z,1.20
2018-06-30T22:40:36.644Z,0.90
2018-06-30T22:43:05.521Z,1.20
2018-06-30T22:45:34.684Z,1.10
2018-06-30T22:48:03.319Z,0.90
2018-06-30T22:50:31.531Z,1.10
2018-06-30T22:53:00.076Z,0.87
2018-06-30T22:55:33.636Z,0.90
2018-06-30T22:58:02.255Z,1.17
2018-06-30T23:00:36.824Z,1.10
2018-06-30T23:03:11.177Z,1.00
2018-06-30T23:05:40.651Z,1.20
2018-06-30T23:08:09.470Z,0.80
2018-06-30T23:10:41.180Z,1.00
2018-06-30T23:13:10.104Z,1.10
2018-06-30T23:15:42.864Z,0.90
2018-06-30T23:18:11.683Z,0.70
2018-06-30T23:23:13.258Z,1.10
2018-06-30T23:25:44.358Z,1.30
2018-06-30T23:28:15.747Z,0.93
2018-06-30T23:30:44.275Z,1.03
2018-06-30T23:33:13.080Z,0.90
2018-06-30T23:35:41.391Z,1.10
2018-06-30T23:38:10.126Z,1.30
2018-06-30T23:40:38.351Z,1.10
2018-06-30T23:43:07.135Z,1.00
2018-06-30T23:45:35.932Z,1.20
2018-06-30T23:48:04.783Z,1.23
2018-06-30T23:50:33.159Z,1.37
2018-06-30T23:53:04.652Z,1.57
2018-06-30T23:55:32.803Z,1.40
2018-06-30T23:58:06.131Z,1.30
